Time;durP1;ratioP1;P1;durP2;ratioP2;P2;SDS_P1;SDS_P2;PMS_P1;PMS_P2;Temp;Humidity;BMP_temperature;BMP_pressure;BME280_temperature;BME280_humidity;BME280_pressure;Samples;Min_cycle;Max_cycle;Signal;HPM_P1;HPM_P2
2022/03/12 00:00:32;;;;;;;7.80;5.70;;;10.80;34.30;;;;;;5033054;28;20021;-73
2022/03/12 00:02:58;;;;;;;10.60;5.95;;;10.80;34.40;;;;;;5038742;28;20045;-72
2022/03/12 00:05:25;;;;;;;10.35;6.57;;;10.80;34.40;;;;;;5035660;28;20100;-72
2022/03/12 00:07:51;;;;;;;9.75;5.88;;;10.80;34.40;;;;;;5040694;28;20021;-72
2022/03/12 00:10:22;;;;;;;8.07;5.78;;;10.80;34.40;;;;;;5037386;28;20405;-72
2022/03/12 00:12:51;;;;;;;13.15;6.28;;;10.80;34.40;;;;;;5038498;28;20017;-72
2022/03/12 00:15:16;;;;;;;8.50;6.35;;;10.80;34.50;;;;;;5039406;28;20033;-72
2022/03/12 00:17:45;;;;;;;11.13;7.45;;;10.90;34.40;;;;;;5035680;28;20044;-72
2022/03/12 00:20:16;;;;;;;11.27;6.90;;;10.80;34.10;;;;;;5039042;28;20403;-73
2022/03/12 00:22:45;;;;;;;9.27;6.68;;;10.80;34.40;;;;;;5038710;28;20055;-73
2022/03/12 00:25:13;;;;;;;7.80;5.40;;;10.80;34.50;;;;;;5041317;28;20022;-72
2022/03/12 00:27:41;;;;;;;9.18;6.05;;;10.80;34.70;;;;;;5036597;28;20032;-72
2022/03/12 00:30:15;;;;;;;7.95;5.20;;;10.80;34.70;;;;;;5039460;28;20032;-72
2022/03/12 00:32:42;;;;;;;10.63;5.93;;;10.80;34.80;;;;;;5034736;28;20091;-72
2022/03/12 00:35:11;;;;;;;8.32;5.95;;;10.80;34.70;;;;;;5042751;28;20025;-72
2022/03/12 00:37:37;;;;;;;9.10;6.10;;;10.80;34.80;;;;;;5039125;28;20424;-72
2022/03/12 00:40:05;;;;;;;8.73;6.47;;;10.80;34.80;;;;;;5039621;28;20101;-72
2022/03/12 00:42:31;;;;;;;11.07;6.88;;;10.80;34.70;;;;;;5042552;28;20367;-72
2022/03/12 00:44:58;;;;;;;9.38;6.78;;;10.80;34.80;;;;;;5043113;28;20037;-72
2022/03/12 00:47:24;;;;;;;12.52;6.68;;;10.70;34.70;;;;;;5042240;28;20032;-71
2022/03/12 00:49:50;;;;;;;10.98;6.10;;;10.70;34.70;;;;;;5040221;28;20028;-72
2022/03/12 00:52:16;;;;;;;8.55;5.97;;;10.60;35.00;;;;;;5040274;28;20017;-72
2022/03/12 00:54:42;;;;;;;9.63;6.30;;;10.70;35.00;;;;;;5040840;28;20487;-73
2022/03/12 00:57:10;;;;;;;8.82;6.43;;;10.70;35.10;;;;;;5041701;28;20029;-72
2022/03/12 00:59:43;;;;;;;8.55;6.18;;;10.60;35.10;;;;;;5043624;28;20009;-72
2022/03/12 01:02:13;;;;;;;11.02;6.95;;;10.60;35.10;;;;;;5045003;28;20027;-71
2022/03/12 01:04:39;;;;;;;9.45;7.05;;;10.60;35.10;;;;;;5042765;28;20021;-71
2022/03/12 01:07:04;;;;;;;7.85;6.10;;;10.60;35.10;;;;;;5044151;28;20446;-72
2022/03/12 01:09:30;;;;;;;8.70;6.03;;;10.60;35.20;;;;;;5040502;28;20029;-72
2022/03/12 01:11:56;;;;;;;8.48;6.07;;;10.60;35.40;;;;;;5038987;28;20032;-72
2022/03/12 01:14:21;;;;;;;9.63;6.00;;;10.50;35.30;;;;;;5044549;28;20108;-72
2022/03/12 01:16:47;;;;;;;8.82;6.40;;;10.60;35.40;;;;;;5039921;28;20487;-72
2022/03/12 01:19:15;;;;;;;8.20;5.80;;;10.50;35.50;;;;;;5042995;28;20048;-72
2022/03/12 01:21:41;;;;;;;7.80;6.00;;;10.50;35.50;;;;;;5042785;28;20115;-73
2022/03/12 01:24:08;;;;;;;7.65;5.82;;;10.60;35.70;;;;;;5045451;28;20124;-72
2022/03/12 01:26:35;;;;;;;8.52;6.57;;;10.60;35.60;;;;;;5046027;28;20041;-72
2022/03/12 01:29:02;;;;;;;12.02;6.60;;;10.60;35.60;;;;;;5046993;28;20028;-72
2022/03/12 01:31:28;;;;;;;9.07;6.60;;;10.60;35.70;;;;;;5045376;28;20495;-72
2022/03/12 01:33:53;;;;;;;8.30;5.65;;;10.60;35.70;;;;;;5043497;28;20100;-72
2022/03/12 01:36:19;;;;;;;10.40;6.55;;;10.60;35.80;;;;;;5043055;28;20028;-72
2022/03/12 01:38:48;;;;;;;8.57;6.20;;;10.60;35.90;;;;;;5042318;28;20088;-72
2022/03/12 01:41:18;;;;;;;9.50;6.55;;;10.60;35.80;;;;;;5047135;28;20053;-72
2022/03/12 01:43:44;;;;;;;9.18;6.47;;;10.60;36.00;;;;;;5041576;28;20098;-72
2022/03/12 01:46:10;;;;;;;8.80;5.90;;;10.60;36.10;;;;;;5045049;28;20424;-72
2022/03/12 01:48:41;;;;;;;7.47;5.30;;;10.70;36.20;;;;;;5045470;28;20029;-72
2022/03/12 01:51:06;;;;;;;9.63;5.60;;;10.70;36.20;;;;;;5045474;28;20021;-72
2022/03/12 01:53:32;;;;;;;11.52;6.70;;;10.70;36.30;;;;;;5045843;28;20028;-72
2022/03/12 01:55:58;;;;;;;9.73;6.70;;;10.70;36.40;;;;;;5039754;28;20037;-72
2022/03/12 01:58:24;;;;;;;10.50;7.30;;;10.70;36.50;;;;;;5045342;28;20478;-72
2022/03/12 02:00:51;;;;;;;8.60;6.45;;;10.70;36.60;;;;;;5046344;28;20021;-72
2022/03/12 02:03:23;;;;;;;9.43;6.07;;;10.70;36.60;;;;;;5041741;28;20029;-72
2022/03/12 02:05:49;;;;;;;10.32;6.25;;;10.70;36.80;;;;;;5043734;28;20027;-72
2022/03/12 02:08:16;;;;;;;8.82;6.00;;;10.70;37.00;;;;;;5048366;28;20017;-72
2022/03/12 02:10:42;;;;;;;10.10;6.40;;;10.70;37.20;;;;;;5042486;28;20021;-72
2022/03/12 02:13:08;;;;;;;10.23;6.50;;;10.70;37.40;;;;;;5034869;28;20017;-72
2022/03/12 02:15:34;;;;;;;8.90;6.05;;;10.70;38.10;;;;;;5042209;28;20017;-72
2022/03/12 02:17:59;;;;;;;8.30;6.10;;;10.70;38.50;;;;;;5045965;28;20059;-72
2022/03/12 02:20:25;;;;;;;9.93;6.32;;;10.60;38.70;;;;;;5046974;28;20440;-72
2022/03/12 02:22:54;;;;;;;8.93;5.88;;;10.60;39.00;;;;;;5043713;28;20029;-72
2022/03/12 02:25:34;;;;;;;9.90;6.72;;;10.60;39.70;;;;;;5042900;28;20017;-73
2022/03/12 02:28:02;;;;;;;8.07;5.85;;;10.50;40.10;;;;;;5044236;28;20051;-72
2022/03/12 02:30:33;;;;;;;9.32;5.30;;;10.50;40.30;;;;;;5036362;28;20025;-72
2022/03/12 02:33:00;;;;;;;7.82;6.00;;;10.50;40.40;;;;;;5042605;28;20029;-73
2022/03/12 02:35:26;;;;;;;9.18;5.88;;;10.50;40.60;;;;;;5039065;28;20039;-72
2022/03/12 02:37:52;;;;;;;9.70;6.75;;;10.50;40.90;;;;;;5040630;28;20036;-72
2022/03/12 02:40:19;;;;;;;9.77;7.15;;;10.50;41.00;;;;;;5043174;28;20463;-73
2022/03/12 02:42:48;;;;;;;9.52;6.05;;;10.40;41.20;;;;;;5040956;28;20051;-72
2022/03/12 02:45:13;;;;;;;8.75;6.43;;;10.40;41.40;;;;;;5041606;28;20625;-72
2022/03/12 02:47:41;;;;;;;9.48;6.55;;;10.40;41.60;;;;;;5045653;28;20036;-72
2022/03/12 02:50:09;;;;;;;9.30;6.20;;;10.40;41.90;;;;;;5039488;28;20767;-72
2022/03/12 02:52:41;;;;;;;9.32;6.45;;;10.30;42.00;;;;;;5041901;28;20479;-72
2022/03/12 02:55:10;;;;;;;10.60;6.43;;;10.30;42.50;;;;;;5041627;28;20075;-72
2022/03/12 02:57:36;;;;;;;9.63;6.93;;;10.30;42.70;;;;;;5047600;28;20037;-72
2022/03/12 03:00:06;;;;;;;11.40;6.88;;;10.30;42.90;;;;;;5044199;28;20021;-72
2022/03/12 03:02:39;;;;;;;10.15;6.18;;;10.20;42.90;;;;;;5041550;28;20482;-71
2022/03/12 03:05:16;;;;;;;;;;;10.20;42.70;;;;;;5044944;28;20179;-71
2022/03/12 03:07:45;;;;;;;9.55;6.97;;;10.20;42.90;;;;;;5041342;28;20306;-71
2022/03/12 03:10:33;;;;;;;9.82;6.20;;;10.20;43.00;;;;;;5042280;28;20094;-71
2022/03/12 03:12:59;;;;;;;8.55;6.18;;;10.20;43.00;;;;;;5040580;28;20486;-71
2022/03/12 03:15:25;;;;;;;10.35;7.05;;;10.10;43.10;;;;;;5033546;28;20028;-70
2022/03/12 03:17:51;;;;;;;9.07;6.70;;;10.20;43.10;;;;;;5042137;28;20029;-71
2022/03/12 03:20:17;;;;;;;9.63;6.38;;;10.20;42.70;;;;;;5044884;28;20028;-71
2022/03/12 03:22:43;;;;;;;8.82;6.25;;;10.20;42.80;;;;;;5039321;28;20033;-71
2022/03/12 03:25:08;;;;;;;8.90;5.35;;;10.30;42.70;;;;;;5044424;28;20037;-71
2022/03/12 03:27:34;;;;;;;11.35;6.72;;;10.30;42.60;;;;;;5044147;28;20430;-72
2022/03/12 03:30:00;;;;;;;9.98;6.70;;;10.30;42.80;;;;;;5037988;28;20057;-72
2022/03/12 03:32:25;;;;;;;11.90;7.00;;;10.30;42.90;;;;;;5044265;28;20147;-72
2022/03/12 03:34:50;;;;;;;8.68;5.95;;;10.30;43.00;;;;;;5042835;28;20079;-73
2022/03/12 03:37:16;;;;;;;9.55;6.50;;;10.30;42.90;;;;;;5045445;28;20384;-73
2022/03/12 03:39:42;;;;;;;9.27;6.88;;;10.30;42.90;;;;;;5040293;28;20476;-73
2022/03/12 03:42:07;;;;;;;11.15;6.68;;;10.30;42.90;;;;;;5040789;28;20025;-73
2022/03/12 03:44:33;;;;;;;9.80;6.78;;;10.40;42.90;;;;;;5042768;28;20061;-73
2022/03/12 03:46:59;;;;;;;14.18;8.88;;;10.40;43.00;;;;;;5049111;28;20032;-73
2022/03/12 03:49:25;;;;;;;12.40;6.68;;;10.30;43.10;;;;;;5040445;28;20071;-72
2022/03/12 03:51:52;;;;;;;8.10;6.15;;;10.40;43.10;;;;;;5046077;28;20021;-73
2022/03/12 03:54:17;;;;;;;11.30;7.25;;;10.40;43.20;;;;;;5041817;28;20548;-73
2022/03/12 03:56:43;;;;;;;11.30;7.70;;;10.40;43.30;;;;;;5044704;28;20025;-72
2022/03/12 03:59:09;;;;;;;8.55;5.60;;;10.30;43.40;;;;;;5044274;28;20135;-72
2022/03/12 04:01:39;;;;;;;9.32;6.20;;;10.40;43.40;;;;;;5043569;28;20013;-72
2022/03/12 04:04:05;;;;;;;10.73;7.75;;;10.40;43.40;;;;;;5040954;28;20025;-72
2022/03/12 04:06:31;;;;;;;9.90;7.00;;;10.40;43.50;;;;;;5045739;28;20028;-73
2022/03/12 04:08:56;;;;;;;9.55;7.15;;;10.40;43.50;;;;;;5047608;28;20024;-73
2022/03/12 04:11:24;;;;;;;11.63;8.18;;;10.40;43.40;;;;;;5048270;28;20021;-73
2022/03/12 04:13:52;;;;;;;10.27;7.90;;;10.40;43.50;;;;;;5040627;28;20021;-73
2022/03/12 04:16:19;;;;;;;10.80;7.55;;;10.40;43.60;;;;;;5047793;28;20021;-73
2022/03/12 04:18:46;;;;;;;12.20;7.38;;;10.40;43.80;;;;;;5043614;28;20071;-72
2022/03/12 04:21:13;;;;;;;11.77;7.40;;;10.40;43.80;;;;;;5045597;28;20029;-72
2022/03/12 04:23:39;;;;;;;9.68;6.85;;;10.40;43.80;;;;;;5042826;28;20025;-72
2022/03/12 04:26:05;;;;;;;12.30;7.95;;;10.40;43.90;;;;;;5048366;28;20029;-72
2022/03/12 04:28:32;;;;;;;12.02;7.85;;;10.40;44.10;;;;;;5045953;28;20080;-71
2022/03/12 04:30:59;;;;;;;12.63;8.38;;;10.40;44.30;;;;;;5046882;28;20052;-72
2022/03/12 04:33:24;;;;;;;11.18;7.80;;;10.40;44.70;;;;;;5051898;28;20029;-71
2022/03/12 04:35:50;;;;;;;9.75;7.18;;;10.40;44.80;;;;;;5041132;28;20039;-71
2022/03/12 04:38:17;;;;;;;11.10;7.22;;;10.40;44.70;;;;;;5048368;28;20037;-71
2022/03/12 04:40:44;;;;;;;11.05;7.50;;;10.40;44.80;;;;;;5047738;28;20032;-72
2022/03/12 04:43:12;;;;;;;10.48;7.05;;;10.40;44.90;;;;;;5046847;28;20052;-72
2022/03/12 04:45:39;;;;;;;11.88;7.80;;;10.40;45.00;;;;;;5045797;28;20021;-72
2022/03/12 04:48:06;;;;;;;9.38;6.45;;;10.40;45.40;;;;;;5041824;28;20121;-72
2022/03/12 04:50:31;;;;;;;10.95;6.85;;;10.40;45.20;;;;;;5045651;28;20017;-72
2022/03/12 04:52:59;;;;;;;11.70;7.20;;;10.40;45.50;;;;;;5043469;28;20033;-71
2022/03/12 04:55:28;;;;;;;10.38;7.70;;;10.30;45.70;;;;;;5046951;28;20049;-71
2022/03/12 04:57:54;;;;;;;9.65;6.80;;;10.30;46.00;;;;;;5045806;28;20369;-72
2022/03/12 05:00:28;;;;;;;9.88;6.00;;;10.30;46.00;;;;;;5048241;28;20495;-71
2022/03/12 05:03:08;;;;;;;9.93;6.47;;;10.30;45.90;;;;;;5048037;28;20028;-72
2022/03/12 05:05:39;;;;;;;10.85;7.72;;;10.20;46.10;;;;;;5046402;28;20039;-72
2022/03/12 05:08:06;;;;;;;11.48;8.00;;;10.20;46.50;;;;;;5045629;28;20516;-72
2022/03/12 05:10:31;;;;;;;11.73;8.23;;;10.20;46.60;;;;;;5047341;28;20442;-72
2022/03/12 05:13:06;;;;;;;13.70;8.32;;;10.10;47.20;;;;;;5048055;28;20036;-72
2022/03/12 05:15:37;;;;;;;16.98;9.02;;;10.10;47.00;;;;;;5042026;28;20018;-73
2022/03/12 05:18:08;;;;;;;11.27;7.57;;;10.00;47.30;;;;;;5048259;28;20049;-73
2022/03/12 05:20:36;;;;;;;11.02;7.40;;;10.00;47.20;;;;;;5044583;28;20112;-72
2022/03/12 05:23:03;;;;;;;10.10;7.32;;;10.00;47.20;;;;;;5044565;28;20040;-72
2022/03/12 05:25:31;;;;;;;11.63;7.40;;;9.90;48.00;;;;;;5049815;28;20032;-72
2022/03/12 05:27:56;;;;;;;11.82;7.47;;;9.90;47.50;;;;;;5039703;28;20032;-72
2022/03/12 05:30:23;;;;;;;11.13;7.18;;;9.90;47.10;;;;;;5047331;28;20021;-72
2022/03/12 05:32:49;;;;;;;13.93;7.85;;;9.90;47.70;;;;;;5042148;28;20530;-72
2022/03/12 05:35:19;;;;;;;10.40;6.97;;;9.90;47.90;;;;;;5041675;28;20021;-72
2022/03/12 05:37:46;;;;;;;10.75;7.65;;;9.90;48.10;;;;;;5044994;28;20037;-72
2022/03/12 05:40:17;;;;;;;9.45;7.13;;;9.80;48.40;;;;;;5043418;28;20781;-72
2022/03/12 05:42:42;;;;;;;10.48;7.40;;;9.80;48.50;;;;;;5045413;28;20029;-72
2022/03/12 05:45:09;;;;;;;10.18;7.05;;;9.80;48.90;;;;;;5044429;28;20043;-73
2022/03/12 05:47:38;;;;;;;10.18;7.47;;;9.80;48.70;;;;;;5039588;28;20120;-73
2022/03/12 05:50:09;;;;;;;14.98;8.52;;;9.80;48.80;;;;;;5041605;28;20466;-72
2022/03/12 05:52:38;;;;;;;12.43;7.97;;;9.70;48.90;;;;;;5036826;28;20025;-72
2022/03/12 05:55:08;;;;;;;10.30;7.32;;;9.70;49.10;;;;;;5046002;28;20040;-72
2022/03/12 05:57:33;;;;;;;12.05;8.48;;;9.70;49.10;;;;;;5043191;28;20108;-73
2022/03/12 06:00:02;;;;;;;13.32;6.35;;;9.60;49.30;;;;;;5039483;28;20039;-73
2022/03/12 06:02:29;;;;;;;12.57;8.10;;;9.60;49.20;;;;;;5040888;28;20025;-73
2022/03/12 06:04:59;;;;;;;12.60;7.70;;;9.60;49.50;;;;;;5043168;28;20117;-72
2022/03/12 06:07:27;;;;;;;12.48;7.72;;;9.60;49.80;;;;;;5042804;28;20020;-73
2022/03/12 06:09:56;;;;;;;11.55;7.45;;;9.50;49.90;;;;;;5045118;28;20052;-72
2022/03/12 06:12:24;;;;;;;10.70;6.88;;;9.50;49.90;;;;;;5035681;28;20030;-73
2022/03/12 06:14:52;;;;;;;10.32;7.30;;;9.60;49.80;;;;;;5034158;28;20442;-73
2022/03/12 06:17:19;;;;;;;9.52;6.72;;;9.60;49.80;;;;;;5044262;28;20387;-72
2022/03/12 06:19:45;;;;;;;9.20;6.35;;;9.60;49.70;;;;;;5046126;28;21378;-73
2022/03/12 06:22:11;;;;;;;11.40;6.90;;;9.60;49.70;;;;;;5043849;28;20071;-73
2022/03/12 06:24:37;;;;;;;9.85;6.95;;;9.60;49.90;;;;;;5038187;28;20026;-72
2022/03/12 06:27:03;;;;;;;11.07;7.22;;;9.60;49.90;;;;;;5044267;28;20094;-73
2022/03/12 06:29:28;;;;;;;10.20;6.90;;;9.60;50.00;;;;;;5047823;28;20415;-73
2022/03/12 06:31:54;;;;;;;11.18;7.65;;;9.60;50.00;;;;;;5046113;28;20155;-73
2022/03/12 06:34:20;;;;;;;11.30;7.50;;;9.60;50.40;;;;;;5042010;28;20511;-72
2022/03/12 06:36:45;;;;;;;10.80;7.38;;;9.60;50.50;;;;;;5043403;28;20040;-72
2022/03/12 06:39:11;;;;;;;9.98;7.25;;;9.60;50.30;;;;;;5045389;28;20032;-72
2022/03/12 06:41:43;;;;;;;11.73;6.80;;;9.60;50.40;;;;;;5035607;28;20026;-73
2022/03/12 06:44:09;;;;;;;9.80;7.30;;;9.60;50.40;;;;;;5041039;28;20025;-72
2022/03/12 06:46:35;;;;;;;9.32;6.05;;;9.60;50.60;;;;;;5047446;28;20159;-72
2022/03/12 06:49:02;;;;;;;10.98;7.50;;;9.70;50.60;;;;;;5043762;28;20025;-72
2022/03/12 06:51:28;;;;;;;10.38;6.97;;;9.70;50.80;;;;;;5041991;28;20099;-73
2022/03/12 06:53:54;;;;;;;8.82;6.03;;;9.60;50.70;;;;;;5038028;28;20096;-73
2022/03/12 06:56:19;;;;;;;11.20;7.47;;;9.70;50.70;;;;;;5041348;28;20091;-73
2022/03/12 06:58:45;;;;;;;8.85;6.45;;;9.60;50.80;;;;;;5041113;28;20056;-73
2022/03/12 07:01:12;;;;;;;11.88;7.90;;;9.70;50.70;;;;;;5044479;28;20037;-73
2022/03/12 07:03:37;;;;;;;11.00;7.15;;;9.70;50.90;;;;;;5045846;28;20498;-73
2022/03/12 07:06:03;;;;;;;9.18;6.32;;;9.70;51.00;;;;;;5038680;28;20017;-73
2022/03/12 07:08:29;;;;;;;10.93;7.40;;;9.70;50.90;;;;;;5042450;28;20419;-73
2022/03/12 07:10:56;;;;;;;10.75;7.55;;;9.80;50.90;;;;;;5035385;28;20063;-72
2022/03/12 07:13:22;;;;;;;10.85;6.80;;;9.80;50.90;;;;;;5045326;28;20067;-73
2022/03/12 07:15:49;;;;;;;9.85;6.57;;;9.80;50.80;;;;;;5041588;28;20025;-73
2022/03/12 07:18:15;;;;;;;11.45;7.63;;;9.90;50.60;;;;;;5045062;28;20037;-72
2022/03/12 07:20:41;;;;;;;9.75;7.32;;;9.90;50.70;;;;;;5038246;28;20030;-73
2022/03/12 07:23:07;;;;;;;9.38;6.50;;;9.90;50.70;;;;;;5047923;28;20400;-73
2022/03/12 07:25:33;;;;;;;11.95;8.30;;;9.90;50.90;;;;;;5044615;28;20056;-73
2022/03/12 07:28:00;;;;;;;8.98;5.93;;;9.90;51.20;;;;;;5038288;28;20052;-73
2022/03/12 07:30:30;;;;;;;11.15;8.02;;;10.00;51.70;;;;;;5040851;28;20029;-73
2022/03/12 07:32:56;;;;;;;10.50;6.80;;;10.00;51.30;;;;;;5041527;28;20057;-73
2022/03/12 07:35:22;;;;;;;9.27;6.68;;;10.00;51.20;;;;;;5040494;28;20040;-73
2022/03/12 07:37:49;;;;;;;9.07;5.95;;;10.10;51.30;;;;;;5039820;28;20017;-73
2022/03/12 07:40:16;;;;;;;9.00;6.68;;;10.20;51.20;;;;;;5042005;28;20045;-72
2022/03/12 07:42:44;;;;;;;8.60;6.28;;;10.10;51.40;;;;;;5047358;28;20025;-73
2022/03/12 07:45:11;;;;;;;10.93;8.15;;;10.20;51.40;;;;;;5048647;28;20025;-72
2022/03/12 07:47:37;;;;;;;14.90;7.85;;;10.20;51.80;;;;;;5042942;28;20025;-73
2022/03/12 07:50:17;;;;;;;9.32;6.85;;;10.20;52.00;;;;;;5037417;28;20102;-74
2022/03/12 07:52:43;;;;;;;11.80;7.78;;;10.20;52.10;;;;;;5051850;28;20032;-73
2022/03/12 07:55:10;;;;;;;10.77;7.53;;;10.20;52.40;;;;;;5052564;28;20059;-73
2022/03/12 07:57:39;;;;;;;13.82;6.93;;;10.20;52.50;;;;;;5050473;28;20372;-73
2022/03/12 08:00:08;;;;;;;11.40;7.43;;;10.30;52.50;;;;;;5043799;28;20427;-72
2022/03/12 08:02:35;;;;;;;9.98;6.10;;;10.40;52.60;;;;;;5027704;28;20247;-73
2022/03/12 08:05:00;;;;;;;11.25;7.32;;;10.40;52.50;;;;;;5050091;28;20484;-73
2022/03/12 08:07:28;;;;;;;11.70;7.15;;;10.40;52.80;;;;;;5051150;28;20032;-72
2022/03/12 08:09:59;;;;;;;10.40;7.50;;;10.40;52.80;;;;;;5044403;28;20035;-72
2022/03/12 08:12:26;;;;;;;9.02;6.70;;;10.50;52.90;;;;;;5039729;28;20029;-71
2022/03/12 08:14:52;;;;;;;7.88;5.70;;;10.50;53.00;;;;;;5051956;28;20025;-72
2022/03/12 08:17:19;;;;;;;7.45;5.70;;;10.60;53.00;;;;;;5049980;28;20047;-71
2022/03/12 08:19:45;;;;;;;10.52;7.55;;;10.70;52.80;;;;;;5051402;28;20040;-72
2022/03/12 08:22:11;;;;;;;8.25;6.10;;;10.80;53.30;;;;;;5047209;28;20043;-72
2022/03/12 08:24:36;;;;;;;9.57;6.82;;;10.80;53.20;;;;;;5041652;28;20480;-72
2022/03/12 08:27:03;;;;;;;8.80;6.38;;;10.90;53.30;;;;;;5046574;28;20029;-72
2022/03/12 08:29:28;;;;;;;7.93;6.10;;;11.00;53.10;;;;;;5049790;28;20378;-73
2022/03/12 08:31:54;;;;;;;9.75;6.47;;;11.10;52.90;;;;;;5046876;28;20052;-72
2022/03/12 08:34:20;;;;;;;8.02;5.72;;;11.20;53.00;;;;;;5050721;28;20094;-72
2022/03/12 08:36:45;;;;;;;9.38;6.85;;;11.30;53.00;;;;;;5050162;28;20056;-71
2022/03/12 08:39:13;;;;;;;9.52;7.00;;;11.30;53.50;;;;;;5049004;28;20075;-71
2022/03/12 08:41:39;;;;;;;9.30;7.07;;;11.40;53.80;;;;;;5050089;28;20036;-72
2022/03/12 08:44:06;;;;;;;9.32;6.72;;;11.40;54.40;;;;;;5051219;28;20029;-72
2022/03/12 08:46:35;;;;;;;8.88;6.30;;;11.40;54.60;;;;;;5044812;28;20075;-71
2022/03/12 08:49:00;;;;;;;10.43;6.45;;;11.50;54.30;;;;;;5042488;28;20024;-71
2022/03/12 08:51:26;;;;;;;9.50;6.25;;;11.60;54.60;;;;;;5043929;28;20033;-71
2022/03/12 08:53:51;;;;;;;10.10;7.40;;;11.60;54.70;;;;;;5047056;28;20431;-72
2022/03/12 08:56:17;;;;;;;8.88;6.47;;;11.70;55.50;;;;;;5046395;28;20022;-72
2022/03/12 08:58:43;;;;;;;9.00;6.20;;;11.70;55.20;;;;;;5044645;28;20066;-71
2022/03/12 09:01:08;;;;;;;7.20;5.57;;;11.80;55.10;;;;;;5049258;28;20040;-71
2022/03/12 09:03:36;;;;;;;9.05;6.28;;;11.90;55.30;;;;;;5049319;28;20033;-72
2022/03/12 09:06:02;;;;;;;8.50;6.22;;;12.00;55.60;;;;;;5048269;28;20025;-72
2022/03/12 09:08:28;;;;;;;9.63;7.15;;;12.00;56.00;;;;;;5045941;28;20028;-72
2022/03/12 09:10:55;;;;;;;10.10;6.63;;;12.10;57.20;;;;;;5044887;28;20021;-72
2022/03/12 09:13:21;;;;;;;9.35;6.30;;;12.10;57.50;;;;;;5048429;28;20028;-72
2022/03/12 09:15:46;;;;;;;11.82;7.93;;;12.30;57.20;;;;;;5047710;28;20025;-72
2022/03/12 09:18:13;;;;;;;8.45;5.82;;;12.30;57.50;;;;;;5047021;28;20029;-72
2022/03/12 09:20:46;;;;;;;6.72;5.00;;;12.40;57.10;;;;;;5046847;28;20067;-72
2022/03/12 09:23:13;;;;;;;9.77;6.43;;;12.50;57.60;;;;;;5049408;28;20028;-72
2022/03/12 09:25:39;;;;;;;7.85;5.65;;;12.60;58.90;;;;;;5047534;28;20029;-71
2022/03/12 09:28:05;;;;;;;7.50;5.55;;;12.60;58.90;;;;;;5047696;28;20021;-71
2022/03/12 09:30:31;;;;;;;6.20;4.72;;;12.60;59.60;;;;;;5046967;28;20112;-71
2022/03/12 09:32:56;;;;;;;7.70;5.82;;;12.70;59.30;;;;;;5041947;28;20017;-71
2022/03/12 09:35:22;;;;;;;8.27;6.40;;;12.70;59.40;;;;;;5045655;28;20040;-71
2022/03/12 09:37:48;;;;;;;9.43;6.50;;;12.70;59.90;;;;;;5045703;28;20032;-72
2022/03/12 09:40:17;;;;;;;7.05;5.35;;;12.70;60.00;;;;;;5049255;28;20025;-72
2022/03/12 09:42:43;;;;;;;6.68;5.18;;;12.80;59.60;;;;;;5044751;28;20024;-72
2022/03/12 09:45:11;;;;;;;7.70;5.40;;;12.80;60.00;;;;;;5048073;28;20380;-72
2022/03/12 09:47:37;;;;;;;7.75;5.03;;;12.80;59.80;;;;;;5049695;28;20025;-72
2022/03/12 09:50:04;;;;;;;7.82;5.10;;;12.90;59.50;;;;;;5049095;28;20067;-71
2022/03/12 09:52:30;;;;;;;10.25;5.70;;;13.00;59.50;;;;;;5049497;28;20036;-72
2022/03/12 09:54:57;;;;;;;7.63;5.65;;;13.00;59.50;;;;;;5043238;28;20044;-72
2022/03/12 09:57:23;;;;;;;8.20;6.22;;;13.00;59.60;;;;;;5048460;28;20044;-72
2022/03/12 09:59:49;;;;;;;7.25;4.75;;;13.00;60.10;;;;;;5045733;28;20051;-72
2022/03/12 10:02:14;;;;;;;5.97;4.30;;;13.10;59.80;;;;;;5048170;28;20027;-72
2022/03/12 10:04:40;;;;;;;7.63;5.85;;;13.20;59.20;;;;;;5047238;28;20029;-72
2022/03/12 10:07:08;;;;;;;8.32;5.75;;;13.30;59.50;;;;;;5053916;28;20036;-72
2022/03/12 10:09:34;;;;;;;8.13;5.35;;;13.30;59.60;;;;;;5047918;28;20029;-72
2022/03/12 10:12:01;;;;;;;7.43;4.90;;;13.30;59.60;;;;;;5045251;28;20078;-72
2022/03/12 10:14:27;;;;;;;7.63;5.53;;;13.40;59.40;;;;;;5039390;28;20694;-72
2022/03/12 10:16:53;;;;;;;5.60;4.35;;;13.50;59.30;;;;;;5038824;28;20026;-71
2022/03/12 10:19:19;;;;;;;5.75;3.90;;;13.60;58.80;;;;;;5041255;28;20013;-72
2022/03/12 10:21:45;;;;;;;7.13;4.63;;;13.70;58.60;;;;;;5039409;28;20083;-72
2022/03/12 10:24:14;;;;;;;8.95;5.75;;;13.70;58.60;;;;;;5045408;28;20029;-73
2022/03/12 10:26:42;;;;;;;8.82;5.20;;;13.80;58.40;;;;;;5040536;28;20021;-73
2022/03/12 10:29:09;;;;;;;7.60;4.63;;;13.80;58.40;;;;;;5043350;28;20395;-73
2022/03/12 10:31:38;;;;;;;6.45;4.85;;;13.80;58.30;;;;;;5037248;28;20021;-73
2022/03/12 10:34:19;;;;;;;6.53;4.53;;;13.90;58.40;;;;;;5043677;28;20056;-72
2022/03/12 10:36:46;;;;;;;5.97;3.78;;;14.00;58.10;;;;;;5043730;28;20032;-74
2022/03/12 10:39:12;;;;;;;6.78;4.93;;;14.10;57.90;;;;;;5043871;28;20112;-73
2022/03/12 10:41:37;;;;;;;7.55;5.40;;;14.10;57.90;;;;;;5042141;28;20116;-73
2022/03/12 10:44:04;;;;;;;7.80;4.85;;;14.00;57.80;;;;;;5040964;28;20033;-73
2022/03/12 10:46:32;;;;;;;6.10;4.03;;;13.90;57.70;;;;;;5038488;28;20027;-73
2022/03/12 10:48:59;;;;;;;5.50;3.65;;;13.90;57.70;;;;;;5039051;28;20033;-75
2022/03/12 10:51:27;;;;;;;5.07;3.30;;;14.00;57.60;;;;;;5039716;28;20055;-73
2022/03/12 10:54:15;;;;;;;6.15;3.92;;;14.10;57.30;;;;;;5038767;28;20104;-73
2022/03/12 10:56:48;;;;;;;9.15;4.53;;;14.20;57.10;;;;;;5039276;28;20025;-73
2022/03/12 10:59:17;;;;;;;6.60;3.85;;;14.30;56.80;;;;;;5042102;28;20033;-73
2022/03/12 11:01:47;;;;;;;5.80;3.88;;;14.20;56.60;;;;;;5040329;28;20605;-73
2022/03/12 11:04:18;;;;;;;4.70;3.40;;;14.20;56.30;;;;;;5043959;28;20025;-73
2022/03/12 11:06:45;;;;;;;4.65;3.10;;;14.20;56.10;;;;;;5037166;28;20017;-72
2022/03/12 11:09:17;;;;;;;6.13;3.88;;;14.30;55.80;;;;;;5042551;28;20021;-73
2022/03/12 11:11:43;;;;;;;5.25;2.83;;;14.30;55.50;;;;;;5039889;28;20017;-72
2022/03/12 11:14:17;;;;;;;5.13;2.95;;;14.30;55.30;;;;;;5040507;28;20349;-73
2022/03/12 11:16:50;;;;;;;4.07;2.72;;;14.40;55.00;;;;;;5040029;28;20479;-72
2022/03/12 11:19:17;;;;;;;6.63;3.80;;;14.50;54.90;;;;;;5041503;28;20036;-73
2022/03/12 11:21:47;;;;;;;5.28;3.50;;;14.60;54.80;;;;;;5038227;28;20017;-72
2022/03/12 11:24:25;;;;;;;6.50;3.92;;;14.50;54.50;;;;;;5040503;28;20475;-72
2022/03/12 11:26:59;;;;;;;5.93;3.50;;;14.50;54.50;;;;;;5038496;28;20025;-72
2022/03/12 11:29:27;;;;;;;5.60;3.70;;;14.50;54.50;;;;;;5040665;28;20033;-72
2022/03/12 11:32:05;;;;;;;5.13;3.03;;;14.50;54.40;;;;;;5039002;28;20491;-72
2022/03/12 11:34:38;;;;;;;4.47;2.95;;;14.60;54.20;;;;;;5039449;28;20026;-71
2022/03/12 11:37:07;;;;;;;5.55;3.78;;;14.80;54.10;;;;;;5042189;28;20619;-73
2022/03/12 11:39:39;;;;;;;6.60;3.67;;;14.80;54.00;;;;;;5034203;28;20220;-72
2022/03/12 11:42:15;;;;;;;5.07;3.05;;;14.90;53.90;;;;;;5039678;28;20025;-72
2022/03/12 11:44:50;;;;;;;5.22;3.65;;;15.00;53.70;;;;;;5036464;28;20632;-72
2022/03/12 11:47:21;;;;;;;16.50;12.25;;;15.20;53.50;;;;;;5036264;28;20106;-73
2022/03/12 11:49:48;;;;;;;11.30;8.35;;;15.30;53.20;;;;;;5035933;28;20028;-72
2022/03/12 11:52:16;;;;;;;16.70;11.63;;;15.30;53.00;;;;;;5040606;28;20071;-72
2022/03/12 11:54:43;;;;;;;11.85;6.78;;;15.30;52.90;;;;;;5043675;28;20074;-72
2022/03/12 11:57:26;;;;;;;10.07;7.85;;;15.30;52.90;;;;;;5040805;28;20023;-72
2022/03/12 11:59:52;;;;;;;10.25;4.80;;;15.20;52.80;;;;;;5040048;28;20507;-72
2022/03/12 12:02:27;;;;;;;6.60;3.80;;;15.10;52.70;;;;;;5041820;28;20064;-73
2022/03/12 12:04:53;;;;;;;6.28;4.13;;;15.10;52.70;;;;;;5034155;28;20037;-73
2022/03/12 12:07:20;;;;;;;5.93;3.55;;;15.20;52.70;;;;;;5041250;28;20100;-73
2022/03/12 12:09:45;;;;;;;4.85;3.85;;;15.30;52.80;;;;;;5039025;28;20554;-74
2022/03/12 12:12:12;;;;;;;6.65;4.15;;;15.30;53.40;;;;;;5043267;28;20136;-73
2022/03/12 12:14:39;;;;;;;5.75;4.30;;;15.20;53.80;;;;;;5037033;28;20471;-73
2022/03/12 12:17:04;;;;;;;6.05;4.38;;;15.10;54.30;;;;;;5036966;28;20052;-73
2022/03/12 12:19:30;;;;;;;5.90;4.25;;;15.10;54.30;;;;;;5039888;28;20534;-73
2022/03/12 12:21:56;;;;;;;7.45;4.35;;;15.20;54.10;;;;;;5043574;28;20025;-73
2022/03/12 12:24:28;;;;;;;6.78;3.97;;;15.20;54.40;;;;;;5036650;28;20025;-73
2022/03/12 12:27:15;;;;;;;6.45;4.70;;;15.30;54.10;;;;;;5035974;28;20018;-73
2022/03/12 12:29:50;;;;;;;6.35;4.50;;;15.40;53.90;;;;;;5042831;28;20028;-74
2022/03/12 12:32:22;;;;;;;10.82;5.53;;;15.50;53.70;;;;;;5040671;28;20484;-73
2022/03/12 12:35:03;;;;;;;;;;;15.40;53.90;;;;;;5043557;28;20531;-73
2022/03/12 12:37:44;;;;;;;5.85;4.43;;;15.40;53.90;;;;;;5034075;28;19925;-73
2022/03/12 12:40:38;;;;;;;8.07;4.68;;;15.50;53.70;;;;;;5039181;28;20124;-73
2022/03/12 12:43:09;;;;;;;8.23;4.95;;;15.40;53.80;;;;;;5039845;28;20530;-73
2022/03/12 12:45:52;;;;;;;5.93;4.05;;;15.40;53.80;;;;;;5037729;28;20092;-74
2022/03/12 12:48:26;;;;;;;5.22;4.20;;;15.60;53.80;;;;;;5040073;28;20029;-73